Time;durP1;ratioP1;P1;durP2;ratioP2;P2;SDS_P1;SDS_P2;PMS_P1;PMS_P2;Temp;Humidity;BMP_temperature;BMP_pressure;BME280_temperature;BME280_humidity;BME280_pressure;Samples;Min_cycle;Max_cycle;Signal;HPM_P1;HPM_P2
2022/09/11 00:01:08;;;;;;;0.00;0.00;;;;;;;;;;5034790;28;20072;-83
2022/09/11 00:03:34;;;;;;;0.00;0.00;;;;;;;;;;5034730;28;20040;-83
2022/09/11 00:06:05;;;;;;;0.00;0.00;;;;;;;;;;5034683;28;20064;-83
2022/09/11 00:08:31;;;;;;;0.00;0.00;;;;;;;;;;5018010;28;20045;-83
2022/09/11 00:11:03;;;;;;;0.00;0.00;;;;;;;;;;5034971;28;20442;-83
2022/09/11 00:13:30;;;;;;;0.00;0.00;;;;;;;;;;5034432;28;20094;-83
2022/09/11 00:15:56;;;;;;;0.00;0.00;;;;;;;;;;5017997;28;20049;-84
2022/09/11 00:18:22;;;;;;;0.00;0.00;;;;;;;;;;5034350;28;20516;-83
2022/09/11 00:20:50;;;;;;;0.00;0.00;;;;;;;;;;5034615;28;20033;-82
2022/09/11 00:23:17;;;;;;;0.00;0.00;;;;;;;;;;5034147;28;20041;-83
2022/09/11 00:25:45;;;;;;;0.00;0.00;;;;;;;;;;5034495;28;20129;-83
2022/09/11 00:28:14;;;;;;;0.00;0.00;;;;;;;;;;5017861;28;20043;-82
2022/09/11 00:30:40;;;;;;;0.00;0.00;;;;;;;;;;5017927;28;20049;-82
2022/09/11 00:33:06;;;;;;;0.00;0.00;;;;;;;;;;5017602;28;20095;-82
2022/09/11 00:35:32;;;;;;;0.00;0.00;;;;;;;;;;5034168;28;20099;-82
2022/09/11 00:37:58;;;;;;;0.00;0.00;;;;;;;;;;5017386;28;20112;-82
2022/09/11 00:40:24;;;;;;;0.20;0.10;;;;;;;;;;5034156;28;20123;-82
2022/09/11 00:42:52;;;;;;;0.00;0.00;;;;;;;;;;5033881;28;20041;-82
2022/09/11 00:45:24;;;;;;;0.00;0.00;;;;;;;;;;5033891;28;20052;-82
2022/09/11 00:47:51;;;;;;;0.00;0.00;;;;;;;;;;5017405;28;20049;-82
2022/09/11 00:50:19;;;;;;;0.00;0.00;;;;;;;;;;5034143;28;20554;-82
2022/09/11 00:52:56;;;;;;;0.00;0.00;;;;;;;;;;5017172;28;20073;-83
2022/09/11 00:55:26;;;;;;;0.00;0.00;;;;;;;;;;5017370;28;20167;-82
2022/09/11 00:57:55;;;;;;;0.00;0.00;;;;;;;;;;5016893;28;20500;-82
2022/09/11 01:00:21;;;;;;;0.00;0.00;;;;;;;;;;5033557;28;20077;-82
2022/09/11 01:02:48;;;;;;;0.00;0.00;;;;;;;;;;5017037;28;20046;-83
2022/09/11 01:05:15;;;;;;;0.00;0.00;;;;;;;;;;5016901;28;20179;-82
2022/09/11 01:07:41;;;;;;;0.00;0.00;;;;;;;;;;5033488;28;20053;-83
2022/09/11 01:10:09;;;;;;;0.00;0.00;;;;;;;;;;5033507;28;20056;-83
2022/09/11 01:12:44;;;;;;;0.55;0.45;;;;;;;;;;5033588;28;20060;-82
2022/09/11 01:15:42;;;;;;;0.00;0.00;;;;;;;;;;5017101;28;20434;-83
2022/09/11 01:18:26;;;;;;;0.00;0.00;;;;;;;;;;4990675;28;20133;-82
2022/09/11 01:21:01;;;;;;;0.00;0.00;;;;;;;;;;5033339;28;20077;-82
2022/09/11 01:23:38;;;;;;;0.00;0.00;;;;;;;;;;5033138;28;20557;-83
2022/09/11 01:26:13;;;;;;;0.00;0.00;;;;;;;;;;5033292;28;20041;-83
2022/09/11 01:28:45;;;;;;;0.00;0.00;;;;;;;;;;5032965;28;20519;-82
2022/09/11 01:31:11;;;;;;;0.00;0.00;;;;;;;;;;5016656;28;20475;-82
2022/09/11 01:33:46;;;;;;;0.00;0.00;;;;;;;;;;5032944;28;20393;-82
2022/09/11 01:36:15;;;;;;;0.00;0.00;;;;;;;;;;5016568;28;20045;-82
2022/09/11 01:38:58;;;;;;;0.00;0.00;;;;;;;;;;5016367;28;20493;-82
2022/09/11 01:41:27;;;;;;;0.00;0.00;;;;;;;;;;5016383;28;20073;-83
2022/09/11 01:44:05;;;;;;;0.00;0.00;;;;;;;;;;5032629;28;20406;-83
2022/09/11 01:46:34;;;;;;;0.00;0.00;;;;;;;;;;5032901;28;20600;-82
2022/09/11 01:49:10;;;;;;;0.00;0.00;;;;;;;;;;5032748;28;20121;-82
2022/09/11 01:51:37;;;;;;;0.00;0.00;;;;;;;;;;5032862;28;20045;-83
2022/09/11 01:54:06;;;;;;;0.00;0.00;;;;;;;;;;5032411;28;20042;-82
2022/09/11 01:56:41;;;;;;;0.00;0.00;;;;;;;;;;5032635;28;20091;-82
2022/09/11 01:59:09;;;;;;;0.00;0.00;;;;;;;;;;5032510;28;20124;-82
2022/09/11 02:01:38;;;;;;;0.00;0.00;;;;;;;;;;5032592;28;20124;-82
2022/09/11 02:04:06;;;;;;;0.00;0.00;;;;;;;;;;5032619;28;20073;-83
2022/09/11 02:06:34;;;;;;;0.00;0.00;;;;;;;;;;5032307;28;20061;-82
2022/09/11 02:09:02;;;;;;;0.00;0.00;;;;;;;;;;5032321;28;20044;-83
2022/09/11 02:11:31;;;;;;;0.00;0.00;;;;;;;;;;5032480;28;20045;-83
2022/09/11 02:13:56;;;;;;;0.00;0.00;;;;;;;;;;5031851;28;20041;-83
2022/09/11 02:16:39;;;;;;;0.00;0.00;;;;;;;;;;5032398;28;20037;-82
2022/09/11 02:19:06;;;;;;;0.00;0.00;;;;;;;;;;5015803;28;20481;-82
2022/09/11 02:21:32;;;;;;;0.00;0.00;;;;;;;;;;5032221;28;20502;-83
2022/09/11 02:23:59;;;;;;;0.20;0.15;;;;;;;;;;5031969;28;20037;-82
2022/09/11 02:26:27;;;;;;;0.00;0.00;;;;;;;;;;5032184;28;20128;-82
2022/09/11 02:28:53;;;;;;;0.00;0.00;;;;;;;;;;5031913;28;20041;-82
2022/09/11 02:31:19;;;;;;;0.00;0.00;;;;;;;;;;5015528;28;20051;-82
2022/09/11 02:33:46;;;;;;;0.00;0.00;;;;;;;;;;5031778;28;20068;-83
2022/09/11 02:36:15;;;;;;;0.00;0.00;;;;;;;;;;5015577;28;20044;-83
2022/09/11 02:38:51;;;;;;;0.00;0.00;;;;;;;;;;5015327;28;20099;-82
2022/09/11 02:41:22;;;;;;;0.00;0.00;;;;;;;;;;5031960;28;20439;-82
2022/09/11 02:43:58;;;;;;;0.22;0.00;;;;;;;;;;5031744;28;20041;-82
2022/09/11 02:46:47;;;;;;;0.00;0.00;;;;;;;;;;5031902;28;20069;-82
2022/09/11 02:49:25;;;;;;;0.00;0.00;;;;;;;;;;5031212;28;20052;-82
2022/09/11 02:51:51;;;;;;;0.00;0.00;;;;;;;;;;5031830;28;20037;-82
2022/09/11 02:54:27;;;;;;;0.00;0.00;;;;;;;;;;5014973;28;20085;-82
2022/09/11 02:57:09;;;;;;;0.00;0.00;;;;;;;;;;5015515;28;20459;-83
2022/09/11 02:59:41;;;;;;;0.00;0.00;;;;;;;;;;5031515;28;20049;-82
2022/09/11 03:02:14;;;;;;;0.00;0.00;;;;;;;;;;5031653;28;20370;-83
2022/09/11 03:04:44;;;;;;;0.00;0.00;;;;;;;;;;5015197;28;20598;-82
2022/09/11 03:07:10;;;;;;;0.00;0.00;;;;;;;;;;5031670;28;20459;-82
2022/09/11 03:09:36;;;;;;;0.00;0.00;;;;;;;;;;5031684;28;20080;-83
2022/09/11 03:12:04;;;;;;;0.00;0.00;;;;;;;;;;5031979;28;20046;-83
2022/09/11 03:14:30;;;;;;;0.00;0.00;;;;;;;;;;5031250;28;20052;-83
2022/09/11 03:16:56;;;;;;;0.00;0.00;;;;;;;;;;5031414;28;20092;-83
2022/09/11 03:19:22;;;;;;;0.00;0.00;;;;;;;;;;5014977;28;20049;-83
2022/09/11 03:21:50;;;;;;;0.00;0.00;;;;;;;;;;5031414;28;20507;-83
2022/09/11 03:24:16;;;;;;;0.00;0.00;;;;;;;;;;5015151;28;20041;-83
2022/09/11 03:26:42;;;;;;;0.00;0.00;;;;;;;;;;5035464;28;20041;-83
2022/09/11 03:29:08;;;;;;;0.00;0.00;;;;;;;;;;5035305;28;20480;-83
2022/09/11 03:31:34;;;;;;;0.00;0.00;;;;;;;;;;5035396;28;20037;-83
2022/09/11 03:34:00;;;;;;;0.00;0.00;;;;;;;;;;5035124;28;20037;-82
2022/09/11 03:36:26;;;;;;;0.00;0.00;;;;;;;;;;5035604;28;20129;-82
2022/09/11 03:38:54;;;;;;;0.00;0.00;;;;;;;;;;5035011;28;20041;-82
2022/09/11 03:41:20;;;;;;;0.00;0.00;;;;;;;;;;5019100;28;20037;-82
2022/09/11 03:43:46;;;;;;;0.00;0.00;;;;;;;;;;5034929;28;20112;-82
2022/09/11 03:46:13;;;;;;;0.00;0.00;;;;;;;;;;5035394;28;20045;-82
2022/09/11 03:48:39;;;;;;;0.00;0.00;;;;;;;;;;5035099;28;20068;-83
2022/09/11 03:51:05;;;;;;;0.00;0.00;;;;;;;;;;5034795;28;20095;-83
2022/09/11 03:53:31;;;;;;;0.00;0.00;;;;;;;;;;5035175;28;20045;-84
2022/09/11 03:55:59;;;;;;;0.00;0.00;;;;;;;;;;5034786;28;20148;-82
2022/09/11 03:58:25;;;;;;;0.00;0.00;;;;;;;;;;5018282;28;20042;-83
2022/09/11 04:00:51;;;;;;;0.00;0.00;;;;;;;;;;5034707;28;20042;-83
2022/09/11 04:03:18;;;;;;;0.00;0.00;;;;;;;;;;5018471;28;20131;-82
2022/09/11 04:05:54;;;;;;;0.00;0.00;;;;;;;;;;5034559;28;20061;-82
2022/09/11 04:08:20;;;;;;;0.00;0.00;;;;;;;;;;5034895;28;20049;-82
2022/09/11 04:10:46;;;;;;;0.00;0.00;;;;;;;;;;5034489;28;20037;-82
2022/09/11 04:13:12;;;;;;;0.00;0.00;;;;;;;;;;5034609;28;20052;-82
2022/09/11 04:15:38;;;;;;;0.00;0.00;;;;;;;;;;5034394;28;20520;-82
2022/09/11 04:18:06;;;;;;;0.00;0.00;;;;;;;;;;5034720;28;20052;-82
2022/09/11 04:20:31;;;;;;;0.52;0.00;;;;;;;;;;5034328;28;20060;-82
2022/09/11 04:22:57;;;;;;;0.00;0.00;;;;;;;;;;5034469;28;20488;-82
2022/09/11 04:25:23;;;;;;;0.00;0.00;;;;;;;;;;5034174;28;20041;-82
2022/09/11 04:27:49;;;;;;;0.00;0.00;;;;;;;;;;5018072;28;20045;-82
2022/09/11 04:30:16;;;;;;;0.00;0.00;;;;;;;;;;5034090;28;20156;-83
2022/09/11 04:32:42;;;;;;;0.00;0.00;;;;;;;;;;5034332;28;20052;-82
2022/09/11 04:35:08;;;;;;;0.00;0.00;;;;;;;;;;5033456;28;20045;-82
2022/09/11 04:37:34;;;;;;;0.00;0.00;;;;;;;;;;5017832;28;20503;-82
2022/09/11 04:40:00;;;;;;;0.00;0.00;;;;;;;;;;5034077;28;20044;-82
2022/09/11 04:42:26;;;;;;;0.00;0.00;;;;;;;;;;5017711;28;20095;-82
2022/09/11 04:44:52;;;;;;;0.00;0.00;;;;;;;;;;5033887;28;20038;-82
2022/09/11 04:47:18;;;;;;;0.00;0.00;;;;;;;;;;5034075;28;20091;-82
2022/09/11 04:49:45;;;;;;;0.00;0.00;;;;;;;;;;5017358;28;20041;-82
2022/09/11 04:52:11;;;;;;;0.00;0.00;;;;;;;;;;5017348;28;20048;-82
2022/09/11 04:54:37;;;;;;;0.00;0.00;;;;;;;;;;5033519;28;20488;-83
2022/09/11 04:57:03;;;;;;;0.00;0.00;;;;;;;;;;5033805;28;20088;-82
2022/09/11 04:59:29;;;;;;;0.00;0.00;;;;;;;;;;5033567;28;20045;-82
2022/09/11 05:01:56;;;;;;;0.00;0.00;;;;;;;;;;5033853;28;20041;-82
2022/09/11 05:04:22;;;;;;;0.00;0.00;;;;;;;;;;5033708;28;20096;-82
2022/09/11 05:06:48;;;;;;;0.00;0.00;;;;;;;;;;5033324;28;20085;-82
2022/09/11 05:09:14;;;;;;;0.00;0.00;;;;;;;;;;5033845;28;20091;-82
2022/09/11 05:11:41;;;;;;;0.00;0.00;;;;;;;;;;5033657;28;20143;-83
2022/09/11 05:14:07;;;;;;;0.00;0.00;;;;;;;;;;5034977;28;20335;-83
2022/09/11 05:16:34;;;;;;;0.00;0.00;;;;;;;;;;5033477;28;20054;-82
2022/09/11 05:19:01;;;;;;;0.00;0.00;;;;;;;;;;5033329;28;20037;-82
2022/09/11 05:21:27;;;;;;;0.00;0.00;;;;;;;;;;5016764;28;20037;-82
2022/09/11 05:23:54;;;;;;;0.00;0.00;;;;;;;;;;5033178;28;20408;-82
2022/09/11 05:26:38;;;;;;;0.00;0.00;;;;;;;;;;5033106;28;20034;-82
2022/09/11 05:29:11;;;;;;;0.00;0.00;;;;;;;;;;5017073;28;20059;-82
2022/09/11 05:31:37;;;;;;;0.00;0.00;;;;;;;;;;5033247;28;20049;-82
2022/09/11 05:34:03;;;;;;;0.00;0.00;;;;;;;;;;5033159;28;20098;-82
2022/09/11 05:36:33;;;;;;;0.00;0.00;;;;;;;;;;5033205;28;20400;-82
2022/09/11 05:38:59;;;;;;;0.00;0.00;;;;;;;;;;5033012;28;20041;-82
2022/09/11 05:41:25;;;;;;;0.00;0.00;;;;;;;;;;5033075;28;20049;-82
2022/09/11 05:43:51;;;;;;;0.00;0.00;;;;;;;;;;5033260;28;20057;-82
2022/09/11 05:46:18;;;;;;;0.00;0.00;;;;;;;;;;5032735;28;20386;-82
2022/09/11 05:48:45;;;;;;;0.00;0.00;;;;;;;;;;5032032;28;20038;-82
2022/09/11 05:51:20;;;;;;;0.00;0.00;;;;;;;;;;5016151;28;20124;-82
2022/09/11 05:53:46;;;;;;;0.00;0.00;;;;;;;;;;5032731;28;20044;-82
2022/09/11 05:56:14;;;;;;;0.00;0.00;;;;;;;;;;5016368;28;20503;-82
2022/09/11 05:58:40;;;;;;;0.00;0.00;;;;;;;;;;5015857;28;20041;-83
2022/09/11 06:01:11;;;;;;;0.00;0.00;;;;;;;;;;5015433;28;20436;-82
2022/09/11 06:03:37;;;;;;;0.00;0.00;;;;;;;;;;5015668;28;20033;-84
2022/09/11 06:06:04;;;;;;;0.00;0.00;;;;;;;;;;5015268;28;20132;-85
2022/09/11 06:08:31;;;;;;;0.00;0.00;;;;;;;;;;5015909;28;20049;-82
2022/09/11 06:10:58;;;;;;;0.00;0.00;;;;;;;;;;5015424;28;20111;-83
2022/09/11 06:13:28;;;;;;;0.00;0.00;;;;;;;;;;5015394;28;20201;-83
2022/09/11 06:15:54;;;;;;;0.00;0.00;;;;;;;;;;5015516;28;20139;-85
2022/09/11 06:18:20;;;;;;;0.00;0.00;;;;;;;;;;5015606;28;20044;-83
2022/09/11 06:21:00;;;;;;;0.00;0.00;;;;;;;;;;5015140;28;20459;-85
2022/09/11 06:23:26;;;;;;;0.00;0.00;;;;;;;;;;5015249;28;20111;-84
2022/09/11 06:25:53;;;;;;;0.00;0.00;;;;;;;;;;4998906;28;20068;-83
2022/09/11 06:28:22;;;;;;;0.00;0.00;;;;;;;;;;5015241;28;20053;-83
2022/09/11 06:30:51;;;;;;;0.00;0.00;;;;;;;;;;5014959;28;20052;-84
2022/09/11 06:33:20;;;;;;;0.00;0.00;;;;;;;;;;5015174;28;20045;-83
2022/09/11 06:35:59;;;;;;;0.00;0.00;;;;;;;;;;5014973;28;20094;-83
2022/09/11 06:38:26;;;;;;;0.00;0.00;;;;;;;;;;5013819;28;20132;-83
2022/09/11 06:40:52;;;;;;;0.00;0.00;;;;;;;;;;4979285;28;20096;-83
2022/09/11 06:43:18;;;;;;;0.00;0.00;;;;;;;;;;4995807;28;20033;-84
2022/09/11 06:45:47;;;;;;;0.00;0.00;;;;;;;;;;4995558;28;20173;-83
2022/09/11 06:48:13;;;;;;;0.00;0.00;;;;;;;;;;4995677;28;20052;-83
2022/09/11 06:50:40;;;;;;;0.10;0.00;;;;;;;;;;4979191;28;20499;-83
2022/09/11 06:53:06;;;;;;;0.00;0.00;;;;;;;;;;4979604;28;20048;-82
2022/09/11 06:55:33;;;;;;;0.00;0.00;;;;;;;;;;4979411;28;20067;-83
2022/09/11 06:57:59;;;;;;;0.00;0.00;;;;;;;;;;4978987;28;20045;-83
2022/09/11 07:00:25;;;;;;;0.00;0.00;;;;;;;;;;4995791;28;20050;-83
2022/09/11 07:02:52;;;;;;;0.00;0.00;;;;;;;;;;4995401;28;20038;-82
2022/09/11 07:05:18;;;;;;;0.00;0.00;;;;;;;;;;4979407;28;20046;-90
2022/09/11 07:07:45;;;;;;;0.00;0.00;;;;;;;;;;4996250;28;20085;-84
2022/09/11 07:10:11;;;;;;;0.00;0.00;;;;;;;;;;4995418;28;20042;-83
2022/09/11 07:12:40;;;;;;;0.00;0.00;;;;;;;;;;4979373;28;20088;-84
2022/09/11 07:15:07;;;;;;;0.00;0.00;;;;;;;;;;4995469;28;20049;-84
2022/09/11 07:17:33;;;;;;;0.00;0.00;;;;;;;;;;4995067;28;20046;-84
2022/09/11 07:19:59;;;;;;;0.00;0.00;;;;;;;;;;4995419;28;20073;-86
2022/09/11 07:22:25;;;;;;;0.00;0.00;;;;;;;;;;4995467;28;20136;-85
2022/09/11 07:24:53;;;;;;;0.00;0.00;;;;;;;;;;4995631;28;20049;-84
2022/09/11 07:27:19;;;;;;;0.00;0.00;;;;;;;;;;4978837;28;20046;-85
2022/09/11 07:29:45;;;;;;;0.00;0.00;;;;;;;;;;4994299;28;20103;-84
2022/09/11 07:32:11;;;;;;;0.00;0.00;;;;;;;;;;4995181;28;20405;-84
2022/09/11 07:34:37;;;;;;;0.00;0.00;;;;;;;;;;4979387;28;20052;-83
2022/09/11 07:37:04;;;;;;;0.00;0.00;;;;;;;;;;4995177;28;20128;-84
2022/09/11 07:39:30;;;;;;;0.00;0.00;;;;;;;;;;4995360;28;20038;-84
2022/09/11 07:41:56;;;;;;;0.00;0.00;;;;;;;;;;4994878;28;20085;-83
2022/09/11 07:44:22;;;;;;;0.00;0.00;;;;;;;;;;4978840;28;20073;-84
2022/09/11 07:46:48;;;;;;;0.00;0.00;;;;;;;;;;4995212;28;20084;-83
2022/09/11 07:49:15;;;;;;;0.00;0.00;;;;;;;;;;4995309;28;20096;-84
2022/09/11 07:51:41;;;;;;;0.00;0.00;;;;;;;;;;4994932;28;20077;-84
2022/09/11 07:54:08;;;;;;;0.00;0.00;;;;;;;;;;4995102;28;20441;-83
2022/09/11 07:56:35;;;;;;;0.00;0.00;;;;;;;;;;4994756;28;20042;-83
2022/09/11 07:59:01;;;;;;;0.00;0.00;;;;;;;;;;4979118;28;20046;-83
2022/09/11 08:01:32;;;;;;;0.00;0.00;;;;;;;;;;4994906;28;20042;-83
2022/09/11 08:04:02;;;;;;;0.00;0.00;;;;;;;;;;4978761;28;20037;-84
2022/09/11 08:06:30;;;;;;;0.00;0.00;;;;;;;;;;4994610;28;20050;-84
2022/09/11 08:09:00;;;;;;;0.00;0.00;;;;;;;;;;4978653;28;20056;-83
2022/09/11 08:11:27;;;;;;;0.00;0.00;;;;;;;;;;4996926;28;20058;-84
2022/09/11 08:13:55;;;;;;;0.00;0.00;;;;;;;;;;4982162;28;20453;-83
2022/09/11 08:16:23;;;;;;;0.00;0.00;;;;;;;;;;4998576;28;20046;-83
2022/09/11 08:18:50;;;;;;;0.00;0.00;;;;;;;;;;4998174;28;20093;-83
2022/09/11 08:21:17;;;;;;;0.00;0.00;;;;;;;;;;4998728;28;20564;-84
2022/09/11 08:23:43;;;;;;;0.00;0.00;;;;;;;;;;4998344;28;20129;-84
2022/09/11 08:26:10;;;;;;;0.00;0.00;;;;;;;;;;4982084;28;20037;-84
2022/09/11 08:28:37;;;;;;;0.00;0.00;;;;;;;;;;4981905;28;20217;-84
2022/09/11 08:31:04;;;;;;;0.00;0.00;;;;;;;;;;4998250;28;20042;-84
2022/09/11 08:33:30;;;;;;;0.00;0.00;;;;;;;;;;4997908;28;20042;-84
2022/09/11 08:36:01;;;;;;;0.00;0.00;;;;;;;;;;4998216;28;20076;-84
2022/09/11 08:38:27;;;;;;;0.00;0.00;;;;;;;;;;4997861;28;20054;-84
2022/09/11 08:40:53;;;;;;;0.00;0.00;;;;;;;;;;4998443;28;20096;-84
2022/09/11 08:43:21;;;;;;;0.00;0.00;;;;;;;;;;4997792;28;20077;-84
2022/09/11 08:45:48;;;;;;;0.00;0.00;;;;;;;;;;4997950;28;20069;-84
2022/09/11 08:48:14;;;;;;;0.00;0.00;;;;;;;;;;4997774;28;20053;-84
2022/09/11 08:50:41;;;;;;;0.00;0.00;;;;;;;;;;4997892;28;20046;-84
2022/09/11 08:53:14;;;;;;;0.00;0.00;;;;;;;;;;4981416;28;20056;-84
2022/09/11 08:55:43;;;;;;;0.00;0.00;;;;;;;;;;4981721;28;20041;-84
2022/09/11 08:58:18;;;;;;;0.00;0.00;;;;;;;;;;4997612;28;20052;-84
2022/09/11 09:00:49;;;;;;;0.00;0.00;;;;;;;;;;4997707;28;20081;-84
2022/09/11 09:03:45;;;;;;;0.00;0.00;;;;;;;;;;4997714;28;20037;-83
2022/09/11 09:06:11;;;;;;;0.20;0.10;;;;;;;;;;4945483;28;20070;-83
2022/09/11 09:08:40;;;;;;;0.00;0.00;;;;;;;;;;4997455;28;20614;-84
2022/09/11 09:11:18;;;;;;;0.00;0.00;;;;;;;;;;4981663;28;20045;-84
2022/09/11 09:14:05;;;;;;;0.00;0.00;;;;;;;;;;4997179;28;20049;-84
2022/09/11 09:16:41;;;;;;;0.00;0.00;;;;;;;;;;4997496;28;20072;-83
2022/09/11 09:19:13;;;;;;;0.00;0.00;;;;;;;;;;4997086;28;20050;-84
2022/09/11 09:21:40;;;;;;;0.00;0.00;;;;;;;;;;4980986;28;20038;-83
2022/09/11 09:24:18;;;;;;;0.00;0.00;;;;;;;;;;4997002;28;20057;-84
2022/09/11 09:26:45;;;;;;;0.00;0.00;;;;;;;;;;4997387;28;20099;-83
2022/09/11 09:29:16;;;;;;;0.00;0.00;;;;;;;;;;4997024;28;20475;-84
2022/09/11 09:31:44;;;;;;;0.00;0.00;;;;;;;;;;4980971;28;20370;-84
2022/09/11 09:34:16;;;;;;;0.00;0.00;;;;;;;;;;4980803;28;20069;-83
2022/09/11 09:37:06;;;;;;;0.00;0.00;;;;;;;;;;4997204;28;20359;-84
2022/09/11 09:39:35;;;;;;;0.00;0.00;;;;;;;;;;4987119;28;20104;-83
2022/09/11 09:42:19;;;;;;;0.00;0.00;;;;;;;;;;4996985;28;20049;-83
2022/09/11 09:44:45;;;;;;;0.00;0.00;;;;;;;;;;4997018;28;20045;-84
2022/09/11 09:47:12;;;;;;;0.00;0.00;;;;;;;;;;4996798;28;20596;-84
2022/09/11 09:49:38;;;;;;;0.00;0.00;;;;;;;;;;4980239;28;20052;-83
2022/09/11 09:52:17;;;;;;;0.00;0.00;;;;;;;;;;4996685;28;20097;-83
2022/09/11 09:54:43;;;;;;;0.00;0.00;;;;;;;;;;4996694;28;20049;-83
2022/09/11 09:57:10;;;;;;;0.00;0.00;;;;;;;;;;4996836;28;20046;-92
2022/09/11 09:59:36;;;;;;;0.00;0.00;;;;;;;;;;5009166;28;20041;-83
2022/09/11 10:02:02;;;;;;;0.00;0.00;;;;;;;;;;5016589;28;20047;-83
2022/09/11 10:04:31;;;;;;;0.00;0.00;;;;;;;;;;5016092;28;20033;-87
2022/09/11 10:07:09;;;;;;;0.00;0.00;;;;;;;;;;5016004;28;20570;-83
2022/09/11 10:09:35;;;;;;;0.00;0.00;;;;;;;;;;5015893;28;20076;-83
2022/09/11 10:12:04;;;;;;;0.00;0.00;;;;;;;;;;5015945;28;20075;-84
2022/09/11 10:14:32;;;;;;;0.00;0.00;;;;;;;;;;4999293;28;20432;-84
2022/09/11 10:17:00;;;;;;;0.00;0.00;;;;;;;;;;5015715;28;20041;-83
2022/09/11 10:19:34;;;;;;;0.00;0.00;;;;;;;;;;5015874;28;20042;-83
2022/09/11 10:22:20;;;;;;;0.00;0.00;;;;;;;;;;5016293;28;20049;-84
2022/09/11 10:24:51;;;;;;;0.03;0.00;;;;;;;;;;5015629;28;20337;-83
2022/09/11 10:27:18;;;;;;;0.00;0.00;;;;;;;;;;5015751;28;20045;-83
2022/09/11 10:29:49;;;;;;;0.00;0.00;;;;;;;;;;5015465;28;20049;-87
2022/09/11 10:32:17;;;;;;;0.00;0.00;;;;;;;;;;4999351;28;20037;-82
2022/09/11 10:34:43;;;;;;;0.00;0.00;;;;;;;;;;5014874;28;20519;-83
2022/09/11 10:37:12;;;;;;;0.00;0.00;;;;;;;;;;5015561;28;20060;-83
2022/09/11 10:39:40;;;;;;;0.00;0.00;;;;;;;;;;5015368;28;20034;-83
2022/09/11 10:42:27;;;;;;;0.00;0.00;;;;;;;;;;5015672;28;20041;-83
2022/09/11 10:44:54;;;;;;;0.00;0.00;;;;;;;;;;5015320;28;20041;-83
2022/09/11 10:47:20;;;;;;;0.00;0.00;;;;;;;;;;4998806;28;20033;-83
2022/09/11 10:49:47;;;;;;;0.00;0.00;;;;;;;;;;4998692;28;20057;-83
2022/09/11 10:52:13;;;;;;;0.00;0.00;;;;;;;;;;4999224;28;20099;-83
2022/09/11 10:54:58;;;;;;;0.00;0.00;;;;;;;;;;5015125;28;20390;-83
2022/09/11 10:57:33;;;;;;;0.00;0.00;;;;;;;;;;4998877;28;20041;-83
2022/09/11 11:00:19;;;;;;;0.00;0.00;;;;;;;;;;5014886;28;20033;-83
2022/09/11 11:02:54;;;;;;;0.00;0.00;;;;;;;;;;5015500;28;20396;-83
2022/09/11 11:05:20;;;;;;;0.00;0.00;;;;;;;;;;5014990;28;20203;-83
2022/09/11 11:08:05;;;;;;;0.00;0.00;;;;;;;;;;4998830;28;20077;-83
2022/09/11 11:10:50;;;;;;;0.00;0.00;;;;;;;;;;4998537;28;20037;-82
2022/09/11 11:13:22;;;;;;;0.00;0.00;;;;;;;;;;4998756;28;20448;-83
2022/09/11 11:15:48;;;;;;;0.00;0.00;;;;;;;;;;5015022;28;20455;-83
2022/09/11 11:18:32;;;;;;;0.00;0.00;;;;;;;;;;5014952;28;20120;-84
2022/09/11 11:21:11;;;;;;;0.00;0.00;;;;;;;;;;4998654;28;20120;-83
2022/09/11 11:23:41;;;;;;;0.00;0.00;;;;;;;;;;5013858;28;20037;-83
2022/09/11 11:26:16;;;;;;;0.00;0.00;;;;;;;;;;5015113;28;20046;-83
2022/09/11 11:28:45;;;;;;;0.00;0.00;;;;;;;;;;5014921;28;20053;-83
2022/09/11 11:31:26;;;;;;;0.00;0.00;;;;;;;;;;4998512;28;20041;-84
2022/09/11 11:34:02;;;;;;;0.00;0.00;;;;;;;;;;5014455;28;20041;-83
2022/09/11 11:36:36;;;;;;;0.00;0.00;;;;;;;;;;4998900;28;20496;-84
2022/09/11 11:39:22;;;;;;;0.00;0.00;;;;;;;;;;5014500;28;20041;-83
2022/09/11 11:42:12;;;;;;;0.00;0.00;;;;;;;;;;5014754;28;20127;-83
2022/09/11 11:44:38;;;;;;;0.00;0.00;;;;;;;;;;5014676;28;20497;-84
2022/09/11 11:47:06;;;;;;;0.00;0.00;;;;;;;;;;5017764;28;20072;-83
2022/09/11 11:49:35;;;;;;;0.00;0.00;;;;;;;;;;5018285;28;20134;-83
2022/09/11 11:52:19;;;;;;;0.00;0.00;;;;;;;;;;5002138;28;20068;-83
2022/09/11 11:54:51;;;;;;;0.00;0.00;;;;;;;;;;5001769;28;20038;-83
2022/09/11 11:57:21;;;;;;;0.00;0.00;;;;;;;;;;5018391;28;20052;-83
2022/09/11 11:59:56;;;;;;;0.00;0.00;;;;;;;;;;5018056;28;20485;-84
2022/09/11 12:02:30;;;;;;;0.00;0.00;;;;;;;;;;5018315;28;20045;-82
2022/09/11 12:05:09;;;;;;;0.00;0.00;;;;;;;;;;5018051;28;20041;-83
2022/09/11 12:07:36;;;;;;;0.00;0.00;;;;;;;;;;5018444;28;20057;-84
2022/09/11 12:10:04;;;;;;;0.00;0.00;;;;;;;;;;5018116;28;20168;-83
2022/09/11 12:12:43;;;;;;;0.00;0.00;;;;;;;;;;5018277;28;20056;-83
2022/09/11 12:15:20;;;;;;;0.00;0.00;;;;;;;;;;5017867;28;20051;-83
2022/09/11 12:17:48;;;;;;;0.00;0.00;;;;;;;;;;5018091;28;20053;-83
2022/09/11 12:20:30;;;;;;;0.00;0.00;;;;;;;;;;5001496;28;20485;-83
2022/09/11 12:22:57;;;;;;;0.00;0.00;;;;;;;;;;5001552;28;20492;-83
2022/09/11 12:25:29;;;;;;;0.00;0.00;;;;;;;;;;5001069;28;20519;-85
2022/09/11 12:28:14;;;;;;;0.00;0.00;;;;;;;;;;5017850;28;20446;-84
2022/09/11 12:30:56;;;;;;;0.00;0.00;;;;;;;;;;5001616;28;20041;-84
2022/09/11 12:33:46;;;;;;;0.00;0.00;;;;;;;;;;5017938;28;20111;-84
2022/09/11 12:36:32;;;;;;;0.00;0.00;;;;;;;;;;5017579;28;20117;-84
2022/09/11 12:39:04;;;;;;;0.00;0.00;;;;;;;;;;5017741;28;20045;-84
2022/09/11 12:41:33;;;;;;;0.00;0.00;;;;;;;;;;5017523;28;20124;-84
2022/09/11 12:43:59;;;;;;;0.00;0.00;;;;;;;;;;5001209;28;20049;-83
2022/09/11 12:46:26;;;;;;;0.00;0.00;;;;;;;;;;5017519;28;20052;-84
2022/09/11 12:49:05;;;;;;;0.00;0.00;;;;;;;;;;5001709;28;20581;-83
2022/09/11 12:51:33;;;;;;;0.00;0.00;;;;;;;;;;5000973;28;20033;-83
2022/09/11 12:54:00;;;;;;;0.00;0.00;;;;;;;;;;5017591;28;20037;-84
2022/09/11 12:56:27;;;;;;;0.00;0.00;;;;;;;;;;5000658;28;20056;-83
2022/09/11 12:58:58;;;;;;;0.00;0.00;;;;;;;;;;5001036;28;20046;-83
2022/09/11 13:01:29;;;;;;;0.00;0.00;;;;;;;;;;5017131;28;20033;-84
2022/09/11 13:03:58;;;;;;;0.00;0.00;;;;;;;;;;5001075;28;20073;-84
2022/09/11 13:06:34;;;;;;;0.20;0.15;;;;;;;;;;5016919;28;20088;-84
2022/09/11 13:09:01;;;;;;;0.00;0.00;;;;;;;;;;5000793;28;20037;-83
2022/09/11 13:11:41;;;;;;;0.00;0.00;;;;;;;;;;5000667;28;20057;-83
2022/09/11 13:14:26;;;;;;;0.00;0.00;;;;;;;;;;5017140;28;20103;-84
2022/09/11 13:16:52;;;;;;;0.00;0.00;;;;;;;;;;5016862;28;20045;-84
2022/09/11 13:19:19;;;;;;;0.00;0.00;;;;;;;;;;5017006;28;20568;-83
2022/09/11 13:21:48;;;;;;;0.00;0.00;;;;;;;;;;5016785;28;20164;-84
2022/09/11 13:24:25;;;;;;;0.00;0.00;;;;;;;;;;5000506;28;20037;-84
2022/09/11 13:26:54;;;;;;;0.00;0.00;;;;;;;;;;5016627;28;20037;-83
2022/09/11 13:29:23;;;;;;;0.00;0.00;;;;;;;;;;5000557;28;20037;-84
2022/09/11 13:31:50;;;;;;;0.00;0.00;;;;;;;;;;5016524;28;20446;-84
2022/09/11 13:34:18;;;;;;;0.00;0.00;;;;;;;;;;5016651;28;20393;-83
2022/09/11 13:36:46;;;;;;;0.00;0.00;;;;;;;;;;5016521;28;20051;-84
2022/09/11 13:39:14;;;;;;;0.00;0.00;;;;;;;;;;5016720;28;20046;-84
2022/09/11 13:41:43;;;;;;;0.00;0.00;;;;;;;;;;5016317;28;20041;-84
2022/09/11 13:44:10;;;;;;;0.00;0.00;;;;;;;;;;5016520;28;20095;-84
2022/09/11 13:46:48;;;;;;;0.00;0.00;;;;;;;;;;4999926;28;20041;-83
2022/09/11 13:49:17;;;;;;;0.00;0.00;;;;;;;;;;5016566;28;20042;-83
2022/09/11 13:51:44;;;;;;;0.00;0.00;;;;;;;;;;5034216;28;20083;-83
2022/09/11 13:54:23;;;;;;;0.00;0.00;;;;;;;;;;4999916;28;20041;-83
2022/09/11 13:56:55;;;;;;;0.00;0.00;;;;;;;;;;5000010;28;20118;-83
2022/09/11 13:59:37;;;;;;;0.00;0.00;;;;;;;;;;5016292;28;20481;-83
2022/09/11 14:02:23;;;;;;;0.00;0.00;;;;;;;;;;5016119;28;20075;-83
2022/09/11 14:04:53;;;;;;;0.00;0.00;;;;;;;;;;5015787;28;20037;-83
2022/09/11 14:07:21;;;;;;;0.00;0.00;;;;;;;;;;5015915;28;20104;-83
2022/09/11 14:09:51;;;;;;;0.00;0.00;;;;;;;;;;5015340;28;20059;-83
2022/09/11 14:12:19;;;;;;;0.00;0.00;;;;;;;;;;4999543;28;20083;-83
2022/09/11 14:14:48;;;;;;;0.00;0.00;;;;;;;;;;4999412;28;20041;-83
2022/09/11 14:17:16;;;;;;;0.00;0.00;;;;;;;;;;4999256;28;20041;-83
2022/09/11 14:19:44;;;;;;;0.00;0.00;;;;;;;;;;4999452;28;20488;-83
2022/09/11 14:22:23;;;;;;;0.00;0.00;;;;;;;;;;4999365;28;20084;-83
2022/09/11 14:25:09;;;;;;;0.00;0.00;;;;;;;;;;5015715;28;20041;-83
2022/09/11 14:27:36;;;;;;;0.00;0.00;;;;;;;;;;5015366;28;20182;-83
2022/09/11 14:30:22;;;;;;;0.00;0.00;;;;;;;;;;5015733;28;20046;-83
2022/09/11 14:33:04;;;;;;;0.00;0.00;;;;;;;;;;5015721;28;20095;-83
2022/09/11 14:35:31;;;;;;;0.00;0.00;;;;;;;;;;5015345;28;20049;-84
2022/09/11 14:37:57;;;;;;;0.00;0.00;;;;;;;;;;5015682;28;20044;-83
2022/09/11 14:40:23;;;;;;;0.00;0.00;;;;;;;;;;5015464;28;20404;-83
2022/09/11 14:42:49;;;;;;;0.00;0.00;;;;;;;;;;5015448;28;20041;-83
2022/09/11 14:45:21;;;;;;;0.00;0.00;;;;;;;;;;5015429;28;20041;-83
2022/09/11 14:47:47;;;;;;;0.00;0.00;;;;;;;;;;4998926;28;20143;-83
2022/09/11 14:50:13;;;;;;;0.00;0.00;;;;;;;;;;4999148;28;20445;-83
2022/09/11 14:52:41;;;;;;;0.00;0.00;;;;;;;;;;5015220;28;20504;-83
2022/09/11 14:55:07;;;;;;;0.00;0.00;;;;;;;;;;5015161;28;20052;-84
2022/09/11 14:57:34;;;;;;;0.00;0.00;;;;;;;;;;5015035;28;20369;-83
2022/09/11 15:00:00;;;;;;;0.00;0.00;;;;;;;;;;5015278;28;20112;-83